createdAt,value
2017-12-19T00:00:28.777Z,0.10
2017-12-19T00:02:55.056Z,0.10
2017-12-19T00:05:21.376Z,0.00
2017-12-19T00:07:47.753Z,0.10
2017-12-19T00:10:13.977Z,0.10
2017-12-19T00:12:40.301Z,0.20
2017-12-19T00:15:07.311Z,0.30
2017-12-19T00:17:33.591Z,0.30
2017-12-19T00:19:59.860Z,0.40
2017-12-19T00:22:38.303Z,0.30
2017-12-19T00:25:06.087Z,0.40
2017-12-19T00:27:32.385Z,0.40
2017-12-19T00:29:58.727Z,0.40
2017-12-19T00:32:25.028Z,0.20
2017-12-19T00:34:51.329Z,0.10
2017-12-19T00:37:17.640Z,0.10
2017-12-19T00:39:44.624Z,0.30
2017-12-19T00:42:10.910Z,0.30
2017-12-19T00:44:37.914Z,0.40
2017-12-19T00:47:04.150Z,0.30
2017-12-19T00:49:30.472Z,0.40
2017-12-19T00:51:56.742Z,0.50
2017-12-19T00:54:23.763Z,0.50
2017-12-19T00:56:50.054Z,0.40
2017-12-19T00:59:17.310Z,0.50
2017-12-19T01:01:43.612Z,0.60
2017-12-19T01:04:10.636Z,0.60
2017-12-19T01:06:38.153Z,0.60
2017-12-19T01:09:04.425Z,0.50
2017-12-19T01:11:30.715Z,0.50
2017-12-19T01:13:56.958Z,0.70
2017-12-19T01:16:23.277Z,0.50
2017-12-19T01:18:49.673Z,0.60
2017-12-19T01:21:16.790Z,0.80
2017-12-19T01:23:43.078Z,0.70
2017-12-19T01:26:09.382Z,0.70
2017-12-19T01:28:36.570Z,0.60
2017-12-19T01:31:02.895Z,0.50
2017-12-19T01:33:29.160Z,0.60
2017-12-19T01:35:55.473Z,0.60
2017-12-19T01:38:21.723Z,0.60
2017-12-19T01:40:48.025Z,0.50
2017-12-19T01:43:14.277Z,0.60
2017-12-19T01:45:40.545Z,0.70
2017-12-19T01:48:07.552Z,0.50
2017-12-19T01:50:33.870Z,0.50
2017-12-19T01:53:00.244Z,0.50
2017-12-19T01:55:27.248Z,0.40
2017-12-19T01:57:53.551Z,0.40
2017-12-19T02:00:19.794Z,0.50
2017-12-19T02:02:46.121Z,0.40
2017-12-19T02:05:12.492Z,0.50
2017-12-19T02:07:46.603Z,0.50
2017-12-19T02:10:12.878Z,0.50
2017-12-19T02:12:39.131Z,0.70
2017-12-19T02:15:05.445Z,0.40
2017-12-19T02:17:31.746Z,0.40
2017-12-19T02:19:58.036Z,0.50
2017-12-19T02:22:24.342Z,0.50
2017-12-19T02:24:50.593Z,0.40
2017-12-19T02:27:16.856Z,0.30
2017-12-19T02:29:44.644Z,0.50
2017-12-19T02:32:11.675Z,0.70
2017-12-19T02:34:37.968Z,0.60
2017-12-19T02:37:04.231Z,0.70
2017-12-19T02:39:30.541Z,0.70
2017-12-19T02:41:56.839Z,0.70
2017-12-19T02:44:23.207Z,0.60
2017-12-19T02:46:49.506Z,0.70
2017-12-19T02:49:15.858Z,0.80
2017-12-19T02:51:42.232Z,0.80
2017-12-19T02:54:10.236Z,0.80
2017-12-19T02:56:36.537Z,0.80
2017-12-19T02:59:03.561Z,0.80
2017-12-19T03:01:29.847Z,0.70
2017-12-19T03:03:56.096Z,0.80
2017-12-19T03:06:22.374Z,0.80
2017-12-19T03:08:49.376Z,1.00
2017-12-19T03:11:15.704Z,1.00
2017-12-19T03:13:42.030Z,1.00
2017-12-19T03:16:08.394Z,0.80
2017-12-19T03:18:34.672Z,0.80
2017-12-19T03:21:00.948Z,0.70
2017-12-19T03:23:27.269Z,0.80
2017-12-19T03:25:53.527Z,0.60
2017-12-19T03:28:20.494Z,0.80
2017-12-19T03:30:46.787Z,0.80
2017-12-19T03:33:13.104Z,0.90
2017-12-19T03:35:39.370Z,0.80
2017-12-19T03:38:07.429Z,0.60
2017-12-19T03:40:34.086Z,0.60
2017-12-19T03:43:01.089Z,0.90
2017-12-19T03:45:27.432Z,0.90
2017-12-19T03:47:53.691Z,0.90
2017-12-19T03:50:20.723Z,0.80
2017-12-19T03:52:47.742Z,0.70
2017-12-19T03:55:14.081Z,0.70
2017-12-19T03:57:40.360Z,0.90
2017-12-19T04:00:06.674Z,1.00
2017-12-19T04:02:33.698Z,1.10
2017-12-19T04:05:00.028Z,1.10
2017-12-19T04:07:26.378Z,1.00
2017-12-19T04:09:52.659Z,1.10
2017-12-19T04:12:19.104Z,1.00
2017-12-19T04:14:45.340Z,1.10
2017-12-19T04:17:11.620Z,1.20
2017-12-19T04:19:37.808Z,1.30
2017-12-19T04:22:04.078Z,1.40
2017-12-19T04:24:30.360Z,1.30
2017-12-19T04:26:56.621Z,1.30
2017-12-19T04:29:22.998Z,1.30
2017-12-19T04:31:49.268Z,1.30
2017-12-19T04:34:15.584Z,1.20
2017-12-19T04:36:41.876Z,1.20
2017-12-19T04:39:08.332Z,1.30
2017-12-19T04:41:34.633Z,1.20
2017-12-19T04:44:00.887Z,1.20
2017-12-19T04:46:27.261Z,1.20
2017-12-19T04:48:53.497Z,1.20
2017-12-19T04:51:19.819Z,1.10
2017-12-19T04:53:46.135Z,1.00
2017-12-19T04:56:12.404Z,1.20
2017-12-19T04:58:39.463Z,0.90
2017-12-19T05:01:05.766Z,1.00
2017-12-19T05:03:32.061Z,1.00
2017-12-19T05:05:58.358Z,1.10
2017-12-19T05:08:24.655Z,1.20
2017-12-19T05:10:50.892Z,1.20
2017-12-19T05:13:17.950Z,1.20
2017-12-19T05:15:44.987Z,1.30
2017-12-19T05:18:12.041Z,1.40
2017-12-19T05:20:38.372Z,1.40
2017-12-19T05:23:05.452Z,1.20
2017-12-19T05:25:31.730Z,1.20
2017-12-19T05:27:58.014Z,1.30
2017-12-19T05:30:24.314Z,1.20
2017-12-19T05:32:51.307Z,1.00
2017-12-19T05:35:17.754Z,1.00
2017-12-19T05:37:44.275Z,1.20
2017-12-19T05:40:10.565Z,1.30
2017-12-19T05:42:37.707Z,1.60
2017-12-19T05:45:04.942Z,1.70
2017-12-19T05:47:31.399Z,1.70
2017-12-19T05:49:58.475Z,1.70
2017-12-19T05:52:24.797Z,1.70
2017-12-19T05:54:51.161Z,1.60
2017-12-19T05:57:17.427Z,1.50
2017-12-19T05:59:44.496Z,1.40
2017-12-19T06:02:10.843Z,1.40
2017-12-19T06:04:37.104Z,1.40
2017-12-19T06:07:03.373Z,1.50
2017-12-19T06:09:30.458Z,1.60
2017-12-19T06:11:56.836Z,1.60
2017-12-19T06:14:23.958Z,1.60
2017-12-19T06:16:50.285Z,1.60
2017-12-19T06:19:16.574Z,1.70
2017-12-19T06:21:42.896Z,1.60
2017-12-19T06:24:09.912Z,1.70
2017-12-19T06:26:36.173Z,1.70
2017-12-19T06:29:03.349Z,1.80
2017-12-19T06:31:29.617Z,1.80
2017-12-19T06:33:55.861Z,1.90
2017-12-19T06:36:22.119Z,1.70
2017-12-19T06:38:49.167Z,1.70
2017-12-19T06:41:15.500Z,1.70
2017-12-19T06:43:42.529Z,1.80
2017-12-19T06:46:08.838Z,1.80
2017-12-19T06:48:35.098Z,1.90
2017-12-19T06:51:02.295Z,2.00
2017-12-19T06:53:28.596Z,1.90
2017-12-19T06:55:54.889Z,1.80
2017-12-19T06:58:21.155Z,1.80
2017-12-19T07:00:47.461Z,1.60
2017-12-19T07:03:14.508Z,2.00
2017-12-19T07:05:40.796Z,2.00
2017-12-19T07:08:07.052Z,2.00
2017-12-19T07:10:33.320Z,1.90
2017-12-19T07:13:00.395Z,2.00
2017-12-19T07:15:27.069Z,2.00
2017-12-19T07:17:53.372Z,1.90
2017-12-19T07:20:20.011Z,1.90
2017-12-19T07:22:46.434Z,2.10
2017-12-19T07:25:12.642Z,2.20
2017-12-19T07:27:39.085Z,2.20
2017-12-19T07:30:05.389Z,2.20
2017-12-19T07:32:32.417Z,2.20
2017-12-19T07:34:58.779Z,2.20
2017-12-19T07:37:25.897Z,2.30
2017-12-19T07:39:52.240Z,2.20
2017-12-19T07:42:18.642Z,2.30
2017-12-19T07:44:44.940Z,2.10
2017-12-19T07:47:11.239Z,2.10
2017-12-19T07:49:38.240Z,2.20
2017-12-19T07:52:04.558Z,2.20
2017-12-19T07:54:30.862Z,2.30
2017-12-19T07:56:57.922Z,2.50
2017-12-19T07:59:24.196Z,2.40
2017-12-19T08:01:50.493Z,2.60
2017-12-19T08:04:16.809Z,2.70
2017-12-19T08:06:43.143Z,2.70
2017-12-19T08:09:09.440Z,2.80
2017-12-19T08:11:35.784Z,2.70
2017-12-19T08:14:02.800Z,2.70
2017-12-19T08:16:29.147Z,2.70
2017-12-19T08:18:55.373Z,2.50
2017-12-19T08:21:21.672Z,2.50
2017-12-19T08:23:47.958Z,2.60
2017-12-19T08:26:14.987Z,2.70
2017-12-19T08:28:41.317Z,2.70
2017-12-19T08:31:07.608Z,3.00
2017-12-19T08:33:34.020Z,3.10
2017-12-19T08:36:00.277Z,3.10
2017-12-19T08:38:26.550Z,3.20
2017-12-19T08:40:52.853Z,3.30
2017-12-19T08:43:19.145Z,3.10
2017-12-19T08:45:45.393Z,3.10
2017-12-19T08:48:11.719Z,3.30
2017-12-19T08:50:37.959Z,3.10
2017-12-19T08:53:04.462Z,2.90
2017-12-19T08:55:30.771Z,2.90
2017-12-19T08:57:57.841Z,2.80
2017-12-19T09:00:24.108Z,2.80
2017-12-19T09:02:50.481Z,2.90
2017-12-19T09:05:17.727Z,2.80
2017-12-19T09:07:43.988Z,2.80
2017-12-19T09:10:10.368Z,2.80
2017-12-19T09:12:36.670Z,3.00
2017-12-19T09:15:02.986Z,2.90
2017-12-19T09:17:29.224Z,2.90
2017-12-19T09:19:55.514Z,3.10
2017-12-19T09:22:22.531Z,3.00
2017-12-19T09:24:48.760Z,3.00
2017-12-19T09:27:15.048Z,3.10
2017-12-19T09:29:41.324Z,3.00
2017-12-19T09:32:07.549Z,3.00
2017-12-19T09:34:33.829Z,3.10
2017-12-19T09:37:00.813Z,2.80
2017-12-19T09:39:34.005Z,2.80
2017-12-19T09:42:00.255Z,2.90
2017-12-19T09:44:26.574Z,3.00
2017-12-19T09:46:52.866Z,2.90
2017-12-19T09:49:19.122Z,2.90
2017-12-19T09:51:45.388Z,3.00
2017-12-19T09:54:11.656Z,3.20
2017-12-19T09:56:37.910Z,3.10
2017-12-19T09:59:04.176Z,3.40
2017-12-19T10:01:30.492Z,3.50
2017-12-19T10:03:56.756Z,3.60
2017-12-19T10:06:23.732Z,3.70
2017-12-19T10:08:50.034Z,3.60
2017-12-19T10:11:17.053Z,3.70
2017-12-19T10:13:43.329Z,3.70
2017-12-19T10:16:09.617Z,3.60
2017-12-19T10:18:35.867Z,3.30
2017-12-19T10:21:02.915Z,3.20
2017-12-19T10:23:29.924Z,3.30
2017-12-19T10:25:56.217Z,3.30
2017-12-19T10:28:22.496Z,3.40
2017-12-19T10:30:48.789Z,3.30
2017-12-19T10:33:15.119Z,3.20
2017-12-19T10:35:41.363Z,3.10
2017-12-19T10:38:07.653Z,3.20
2017-12-19T10:40:34.702Z,3.30
2017-12-19T10:43:01.729Z,3.30
2017-12-19T10:45:28.056Z,3.30
2017-12-19T10:47:54.380Z,3.20
2017-12-19T10:50:20.756Z,3.20
2017-12-19T10:52:47.075Z,3.40
2017-12-19T10:55:14.074Z,3.40
2017-12-19T10:57:40.332Z,3.40
2017-12-19T11:00:06.584Z,3.10
2017-12-19T11:02:33.634Z,3.50
2017-12-19T11:04:59.870Z,3.40
2017-12-19T11:07:26.148Z,3.60
2017-12-19T11:09:52.422Z,3.40
2017-12-19T11:12:18.745Z,3.30
2017-12-19T11:14:45.761Z,3.30
2017-12-19T11:17:12.125Z,3.30
2017-12-19T11:19:38.383Z,3.00
2017-12-19T11:22:04.608Z,3.20
2017-12-19T11:24:30.917Z,3.30
2017-12-19T11:26:57.995Z,3.30
2017-12-19T11:29:24.335Z,3.20
2017-12-19T11:31:50.609Z,3.20
2017-12-19T11:34:16.945Z,3.10
2017-12-19T11:36:43.990Z,3.30
2017-12-19T11:39:11.088Z,3.60
2017-12-19T11:41:37.456Z,3.60
2017-12-19T11:44:03.737Z,3.40
2017-12-19T11:46:29.982Z,3.40
2017-12-19T11:48:56.290Z,3.50
2017-12-19T11:51:22.596Z,3.60
2017-12-19T11:53:49.634Z,3.40
2017-12-19T11:56:16.636Z,3.40
2017-12-19T11:58:42.989Z,3.40
2017-12-19T12:01:09.316Z,3.40
2017-12-19T12:03:35.600Z,3.30
2017-12-19T12:06:02.618Z,3.30
2017-12-19T12:08:28.852Z,3.20
2017-12-19T12:10:55.144Z,3.30
2017-12-19T12:13:21.407Z,3.40
2017-12-19T12:15:47.856Z,3.40
2017-12-19T12:18:15.082Z,3.20
2017-12-19T12:20:41.313Z,3.20
2017-12-19T12:23:07.577Z,3.10
2017-12-19T12:25:34.629Z,3.30
2017-12-19T12:28:00.917Z,3.30
2017-12-19T12:30:27.161Z,3.30
2017-12-19T12:32:53.461Z,3.30
2017-12-19T12:35:19.755Z,3.30
2017-12-19T12:37:46.061Z,3.40
2017-12-19T12:40:13.052Z,3.20
2017-12-19T12:42:39.329Z,3.20
2017-12-19T12:45:05.660Z,3.20
2017-12-19T12:47:31.944Z,3.20
2017-12-19T12:49:58.201Z,3.40
2017-12-19T12:52:24.474Z,3.30
2017-12-19T12:54:51.514Z,3.50
2017-12-19T12:57:19.205Z,3.30
2017-12-19T12:59:45.486Z,3.30
2017-12-19T13:02:11.814Z,3.40
2017-12-19T13:04:38.109Z,3.40
2017-12-19T13:07:04.394Z,3.30
2017-12-19T13:09:31.446Z,3.50
2017-12-19T13:11:58.481Z,3.40
2017-12-19T13:14:25.530Z,3.20
2017-12-19T13:16:51.849Z,3.20
2017-12-19T13:19:18.193Z,3.40
2017-12-19T13:21:45.237Z,3.50
2017-12-19T13:24:12.889Z,3.50
2017-12-19T13:26:39.185Z,3.50
2017-12-19T13:29:05.466Z,3.60
2017-12-19T13:31:32.568Z,3.50
2017-12-19T13:33:58.828Z,3.40
2017-12-19T13:36:25.156Z,3.50
2017-12-19T13:38:51.458Z,3.50
2017-12-19T13:41:17.765Z,3.60
2017-12-19T13:43:44.049Z,3.60
2017-12-19T13:46:10.276Z,3.60
2017-12-19T13:48:36.532Z,3.50
2017-12-19T13:51:03.556Z,3.30
2017-12-19T13:53:29.812Z,3.30
2017-12-19T13:55:56.820Z,3.30
2017-12-19T13:58:24.037Z,3.10
2017-12-19T14:00:50.329Z,3.10
2017-12-19T14:03:16.651Z,3.10
2017-12-19T14:05:43.961Z,3.00
2017-12-19T14:08:10.237Z,2.90
2017-12-19T14:10:36.573Z,3.00
2017-12-19T14:13:02.907Z,3.10
2017-12-19T14:15:29.189Z,3.00
2017-12-19T14:17:55.539Z,3.10
2017-12-19T14:20:21.874Z,3.10
2017-12-19T14:22:48.147Z,3.00
2017-12-19T14:25:14.404Z,2.90
2017-12-19T14:27:40.678Z,3.00
2017-12-19T14:30:06.952Z,2.90
2017-12-19T14:32:33.238Z,2.90
2017-12-19T14:34:59.551Z,3.00
2017-12-19T14:37:25.882Z,3.10
2017-12-19T14:39:52.132Z,3.00
2017-12-19T14:42:18.452Z,3.10
2017-12-19T14:44:45.232Z,3.10
2017-12-19T14:47:11.510Z,3.00
2017-12-19T14:49:37.778Z,3.10
2017-12-19T14:52:04.075Z,2.90
2017-12-19T14:54:30.410Z,2.90
2017-12-19T14:56:56.675Z,2.90
2017-12-19T14:59:23.788Z,3.00
2017-12-19T15:01:50.128Z,3.00
2017-12-19T15:04:16.457Z,3.00
2017-12-19T15:06:42.739Z,2.90
2017-12-19T15:09:09.011Z,2.80
2017-12-19T15:11:35.285Z,2.90
2017-12-19T15:14:02.311Z,2.70
2017-12-19T15:16:28.617Z,2.70
2017-12-19T15:18:54.853Z,2.70
2017-12-19T15:21:21.177Z,2.70
2017-12-19T15:23:48.257Z,2.80
2017-12-19T15:26:15.277Z,2.80
2017-12-19T15:28:41.599Z,2.80
2017-12-19T15:31:07.881Z,2.80
2017-12-19T15:33:34.160Z,2.80
2017-12-19T15:36:00.463Z,2.70
2017-12-19T15:38:26.788Z,2.70
2017-12-19T15:40:53.039Z,2.70
2017-12-19T15:43:19.319Z,2.70
2017-12-19T15:45:46.418Z,2.80
2017-12-19T15:48:14.502Z,2.80
2017-12-19T15:50:40.803Z,2.70
2017-12-19T15:53:07.119Z,2.80
2017-12-19T15:55:33.377Z,2.70
2017-12-19T15:57:59.672Z,2.70
2017-12-19T16:00:26.652Z,2.80
2017-12-19T16:02:52.969Z,2.70
2017-12-19T16:05:19.261Z,2.70
2017-12-19T16:07:45.541Z,2.80
2017-12-19T16:10:11.853Z,2.70
2017-12-19T16:12:38.123Z,2.80
2017-12-19T16:15:04.549Z,2.70
2017-12-19T16:17:30.901Z,2.70
2017-12-19T16:19:57.563Z,2.70
2017-12-19T16:22:24.244Z,2.70
2017-12-19T16:24:50.534Z,2.70
2017-12-19T16:27:17.907Z,2.70
2017-12-19T16:29:44.901Z,2.70
2017-12-19T16:32:11.408Z,2.80
2017-12-19T16:34:37.738Z,2.70
2017-12-19T16:37:04.046Z,2.80
2017-12-19T16:39:30.335Z,2.90
2017-12-19T16:41:56.946Z,2.80
2017-12-19T16:44:23.263Z,2.80
2017-12-19T16:46:49.654Z,2.80
2017-12-19T16:49:17.056Z,2.90
2017-12-19T16:51:44.077Z,2.90
2017-12-19T16:54:10.850Z,3.00
2017-12-19T16:56:37.291Z,3.00
2017-12-19T16:59:03.914Z,3.00
2017-12-19T17:01:30.165Z,3.10
2017-12-19T17:03:56.737Z,3.00
2017-12-19T17:06:23.319Z,2.90
2017-12-19T17:08:49.891Z,3.00
2017-12-19T17:11:16.242Z,2.90
2017-12-19T17:13:42.643Z,3.00
2017-12-19T17:16:09.707Z,3.00
2017-12-19T17:18:36.006Z,3.00
2017-12-19T17:21:02.353Z,3.10
2017-12-19T17:23:28.636Z,3.10
2017-12-19T17:25:55.700Z,3.20
2017-12-19T17:28:22.015Z,3.20
2017-12-19T17:30:48.368Z,3.20
2017-12-19T17:33:14.759Z,3.20
2017-12-19T17:35:41.163Z,3.20
2017-12-19T17:38:07.426Z,3.30
2017-12-19T17:40:33.800Z,3.30
2017-12-19T17:43:00.073Z,3.40
2017-12-19T17:45:26.371Z,3.40
2017-12-19T17:47:52.646Z,3.40
2017-12-19T17:50:18.922Z,3.30
2017-12-19T17:52:45.316Z,3.30
2017-12-19T17:55:12.399Z,3.10
2017-12-19T17:57:38.767Z,3.10
2017-12-19T18:00:05.356Z,3.00
2017-12-19T18:02:31.692Z,3.10
2017-12-19T18:04:57.997Z,3.00
2017-12-19T18:07:25.075Z,3.00
2017-12-19T18:09:51.367Z,3.00
2017-12-19T18:12:17.613Z,3.00
2017-12-19T18:14:44.633Z,3.20
2017-12-19T18:17:11.010Z,3.20
2017-12-19T18:19:37.382Z,3.20
2017-12-19T18:22:03.701Z,3.40
2017-12-19T18:24:30.176Z,3.30
2017-12-19T18:26:56.520Z,3.30
2017-12-19T18:29:23.691Z,3.20
2017-12-19T18:31:50.220Z,3.20
2017-12-19T18:34:16.709Z,3.20
2017-12-19T18:36:43.076Z,3.10
2017-12-19T18:39:10.141Z,3.10
2017-12-19T18:41:36.784Z,3.10
2017-12-19T18:44:03.155Z,3.10
2017-12-19T18:46:29.444Z,3.00
2017-12-19T18:48:56.114Z,2.90
2017-12-19T18:51:22.458Z,2.90
2017-12-19T18:53:48.763Z,2.90
2017-12-19T18:56:15.365Z,2.90
2017-12-19T18:58:42.417Z,3.10
2017-12-19T19:01:09.461Z,3.20
2017-12-19T19:03:36.688Z,3.20
2017-12-19T19:06:03.001Z,3.20
2017-12-19T19:08:29.366Z,3.20
2017-12-19T19:10:56.537Z,3.30
2017-12-19T19:13:23.574Z,3.40
2017-12-19T19:15:50.692Z,3.40
2017-12-19T19:18:16.989Z,3.30
2017-12-19T19:20:43.412Z,3.30
2017-12-19T19:23:09.764Z,3.30
2017-12-19T19:25:36.050Z,3.40
2017-12-19T19:28:03.110Z,3.50
2017-12-19T19:30:29.486Z,3.50
2017-12-19T19:32:55.859Z,3.60
2017-12-19T19:35:24.155Z,3.70
2017-12-19T19:37:51.239Z,3.60
2017-12-19T19:40:17.611Z,3.60
2017-12-19T19:42:44.728Z,3.70
2017-12-19T19:45:11.211Z,3.70
2017-12-19T19:47:38.490Z,3.70
2017-12-19T19:50:04.851Z,3.70
2017-12-19T19:52:31.228Z,3.80
2017-12-19T19:54:58.465Z,3.90
2017-12-19T19:57:25.524Z,3.90
2017-12-19T19:59:52.622Z,3.80
2017-12-19T20:02:18.919Z,3.80
2017-12-19T20:04:45.287Z,3.80
2017-12-19T20:07:11.678Z,3.70
2017-12-19T20:09:38.078Z,3.70
2017-12-19T20:12:04.392Z,3.70
2017-12-19T20:14:30.749Z,3.70
2017-12-19T20:16:57.120Z,3.70
2017-12-19T20:19:23.528Z,3.70
2017-12-19T20:21:50.722Z,3.80
2017-12-19T20:24:17.174Z,3.80
2017-12-19T20:26:43.523Z,3.70
2017-12-19T20:29:09.956Z,3.70
2017-12-19T20:31:36.363Z,3.80
2017-12-19T20:34:02.758Z,3.80
2017-12-19T20:36:29.854Z,3.70
2017-12-19T20:38:56.254Z,3.70
2017-12-19T20:41:22.697Z,3.80
2017-12-19T20:43:49.153Z,3.80
2017-12-19T20:46:15.709Z,3.80
2017-12-19T20:48:42.088Z,3.80
2017-12-19T20:51:08.509Z,3.90
2017-12-19T20:53:34.939Z,3.90
2017-12-19T20:56:01.273Z,3.90
2017-12-19T20:58:28.367Z,3.90
2017-12-19T21:00:54.662Z,3.90
2017-12-19T21:03:21.020Z,3.90
2017-12-19T21:05:47.385Z,3.90
2017-12-19T21:08:13.642Z,4.00
2017-12-19T21:10:40.735Z,4.10
2017-12-19T21:13:06.994Z,4.10
2017-12-19T21:15:34.438Z,4.10
2017-12-19T21:18:00.789Z,4.10
2017-12-19T21:20:27.078Z,4.10
2017-12-19T21:22:53.384Z,4.10
2017-12-19T21:25:19.737Z,4.00
2017-12-19T21:27:46.104Z,4.00
2017-12-19T21:30:12.500Z,4.00
2017-12-19T21:32:38.830Z,4.00
2017-12-19T21:35:05.269Z,3.90
2017-12-19T21:37:31.637Z,3.90
2017-12-19T21:39:57.976Z,3.90
2017-12-19T21:42:25.077Z,4.00
2017-12-19T21:44:51.398Z,4.00
2017-12-19T21:47:17.685Z,4.10
2017-12-19T21:49:43.998Z,4.10
2017-12-19T21:52:10.268Z,4.20
2017-12-19T21:54:38.285Z,4.10
2017-12-19T21:57:04.548Z,4.10
2017-12-19T21:59:30.893Z,4.10
2017-12-19T22:01:58.827Z,4.20
2017-12-19T22:04:25.335Z,4.20
2017-12-19T22:06:51.694Z,4.10
2017-12-19T22:09:17.964Z,4.20
2017-12-19T22:11:45.070Z,4.10
2017-12-19T22:14:11.348Z,4.00
2017-12-19T22:16:38.380Z,4.20
2017-12-19T22:19:05.405Z,4.30
2017-12-19T22:21:31.737Z,4.30
2017-12-19T22:23:58.031Z,4.40
2017-12-19T22:26:24.356Z,4.40
2017-12-19T22:28:56.158Z,4.40
2017-12-19T22:31:16.927Z,4.50
2017-12-19T22:33:44.121Z,4.40
2017-12-19T22:36:11.205Z,4.20
2017-12-19T22:38:37.521Z,4.20
2017-12-19T22:41:04.595Z,4.00
2017-12-19T22:43:30.934Z,4.00
2017-12-19T22:45:58.012Z,4.10
2017-12-19T22:48:24.342Z,4.10
2017-12-19T22:50:51.344Z,4.10
2017-12-19T22:53:18.131Z,4.20
2017-12-19T22:55:44.523Z,4.00
2017-12-19T22:58:10.826Z,4.00
2017-12-19T23:00:37.874Z,4.20
2017-12-19T23:03:04.922Z,4.30
2017-12-19T23:05:32.032Z,4.40
2017-12-19T23:07:58.540Z,4.40
2017-12-19T23:10:25.087Z,4.50
2017-12-19T23:12:51.432Z,4.50
2017-12-19T23:15:17.701Z,4.40
2017-12-19T23:17:43.997Z,4.30
2017-12-19T23:20:10.414Z,4.20
2017-12-19T23:22:36.688Z,4.30
2017-12-19T23:25:03.804Z,4.20
2017-12-19T23:27:30.102Z,4.20
2017-12-19T23:29:56.362Z,4.20
2017-12-19T23:32:22.606Z,4.20
2017-12-19T23:34:48.936Z,4.10
2017-12-19T23:37:15.170Z,4.10
2017-12-19T23:39:48.432Z,4.00
2017-12-19T23:42:14.691Z,4.00
2017-12-19T23:44:40.944Z,4.10
2017-12-19T23:47:07.256Z,4.00
2017-12-19T23:49:33.771Z,4.00
2017-12-19T23:52:00.053Z,3.90
2017-12-19T23:54:28.113Z,4.00
2017-12-19T23:56:54.339Z,3.90
2017-12-19T23:59:20.649Z,3.90
